sensor_id;sensor_type;location;lat;lon;timestamp;pressure;altitude;pressure_sealevel;temperature;humidity
68077;BME280;54866;53.458;14.540;2023-05-11T00:01:11;100623.25;;;13.69;53.40
68077;BME280;54866;53.458;14.540;2023-05-11T00:03:40;100620.67;;;13.66;53.21
68077;BME280;54866;53.458;14.540;2023-05-11T00:06:10;100623.31;;;13.64;53.28
68077;BME280;54866;53.458;14.540;2023-05-11T00:08:40;100616.59;;;13.61;53.44
68077;BME280;54866;53.458;14.540;2023-05-11T00:11:10;100626.66;;;13.56;53.55
68077;BME280;54866;53.458;14.540;2023-05-11T00:13:40;100629.89;;;13.54;53.75
68077;BME280;54866;53.458;14.540;2023-05-11T00:16:09;100626.77;;;13.51;53.75
68077;BME280;54866;53.458;14.540;2023-05-11T00:18:39;100621.83;;;13.49;53.79
68077;BME280;54866;53.458;14.540;2023-05-11T00:21:08;100623.20;;;13.48;53.96
68077;BME280;54866;53.458;14.540;2023-05-11T00:23:38;100628.88;;;13.46;54.05
68077;BME280;54866;53.458;14.540;2023-05-11T00:26:08;100628.45;;;13.41;54.04
68077;BME280;54866;53.458;14.540;2023-05-11T00:28:37;100629.15;;;13.39;54.24
68077;BME280;54866;53.458;14.540;2023-05-11T00:31:07;100625.46;;;13.35;54.45
68077;BME280;54866;53.458;14.540;2023-05-11T00:33:36;100629.48;;;13.33;54.38
68077;BME280;54866;53.458;14.540;2023-05-11T00:36:07;100629.20;;;13.31;54.83
68077;BME280;54866;53.458;14.540;2023-05-11T00:38:36;100629.48;;;13.27;54.80
68077;BME280;54866;53.458;14.540;2023-05-11T00:41:08;100629.71;;;13.27;54.72
68077;BME280;54866;53.458;14.540;2023-05-11T00:43:38;100634.13;;;13.25;55.05
68077;BME280;54866;53.458;14.540;2023-05-11T00:46:08;100637.06;;;13.24;55.06
68077;BME280;54866;53.458;14.540;2023-05-11T00:48:37;100634.33;;;13.21;54.81
68077;BME280;54866;53.458;14.540;2023-05-11T00:51:07;100635.62;;;13.21;55.02
68077;BME280;54866;53.458;14.540;2023-05-11T00:53:38;100639.19;;;13.20;55.11
68077;BME280;54866;53.458;14.540;2023-05-11T00:56:09;100638.95;;;13.19;55.08
68077;BME280;54866;53.458;14.540;2023-05-11T00:58:38;100638.41;;;13.15;54.91
68077;BME280;54866;53.458;14.540;2023-05-11T01:01:08;100634.11;;;13.12;55.18
68077;BME280;54866;53.458;14.540;2023-05-11T01:03:38;100640.95;;;13.08;55.35
68077;BME280;54866;53.458;14.540;2023-05-11T01:06:10;100641.51;;;13.04;55.55
68077;BME280;54866;53.458;14.540;2023-05-11T01:08:44;100638.01;;;12.99;55.59
68077;BME280;54866;53.458;14.540;2023-05-11T01:11:20;100645.19;;;12.96;55.63
68077;BME280;54866;53.458;14.540;2023-05-11T01:13:58;100646.02;;;12.91;55.74
68077;BME280;54866;53.458;14.540;2023-05-11T01:16:30;100644.40;;;12.89;55.56
68077;BME280;54866;53.458;14.540;2023-05-11T01:19:07;100648.17;;;12.87;55.73
68077;BME280;54866;53.458;14.540;2023-05-11T01:21:40;100646.02;;;12.85;55.54
68077;BME280;54866;53.458;14.540;2023-05-11T01:24:22;100648.18;;;12.85;55.57
68077;BME280;54866;53.458;14.540;2023-05-11T01:27:12;100655.05;;;12.83;55.72
68077;BME280;54866;53.458;14.540;2023-05-11T01:29:56;100653.69;;;12.80;55.85
68077;BME280;54866;53.458;14.540;2023-05-11T01:32:31;100655.02;;;12.77;55.89
68077;BME280;54866;53.458;14.540;2023-05-11T01:35:06;100658.33;;;12.74;56.04
68077;BME280;54866;53.458;14.540;2023-05-11T01:37:37;100660.68;;;12.71;56.10
68077;BME280;54866;53.458;14.540;2023-05-11T01:40:14;100656.61;;;12.67;56.39
68077;BME280;54866;53.458;14.540;2023-05-11T01:42:46;100657.14;;;12.63;56.58
68077;BME280;54866;53.458;14.540;2023-05-11T01:45:17;100662.46;;;12.59;56.61
68077;BME280;54866;53.458;14.540;2023-05-11T01:47:49;100665.48;;;12.53;56.83
68077;BME280;54866;53.458;14.540;2023-05-11T01:50:19;100670.73;;;12.51;56.91
68077;BME280;54866;53.458;14.540;2023-05-11T01:52:52;100673.42;;;12.49;57.10
68077;BME280;54866;53.458;14.540;2023-05-11T01:55:23;100673.06;;;12.47;57.22
68077;BME280;54866;53.458;14.540;2023-05-11T01:57:54;100674.77;;;12.45;57.11
68077;BME280;54866;53.458;14.540;2023-05-11T02:00:24;100677.34;;;12.42;57.34
68077;BME280;54866;53.458;14.540;2023-05-11T02:02:55;100676.54;;;12.42;57.49
68077;BME280;54866;53.458;14.540;2023-05-11T02:05:25;100680.68;;;12.40;57.44
68077;BME280;54866;53.458;14.540;2023-05-11T02:07:57;100684.25;;;12.40;57.56
68077;BME280;54866;53.458;14.540;2023-05-11T02:10:28;100681.81;;;12.37;57.52
68077;BME280;54866;53.458;14.540;2023-05-11T02:12:59;100690.86;;;12.35;57.55
68077;BME280;54866;53.458;14.540;2023-05-11T02:15:31;100698.36;;;12.34;57.55
68077;BME280;54866;53.458;14.540;2023-05-11T02:18:03;100694.64;;;12.32;57.62
68077;BME280;54866;53.458;14.540;2023-05-11T02:20:35;100703.17;;;12.31;57.66
68077;BME280;54866;53.458;14.540;2023-05-11T02:23:07;100693.08;;;12.28;57.89
68077;BME280;54866;53.458;14.540;2023-05-11T02:25:38;100699.54;;;12.26;57.78
68077;BME280;54866;53.458;14.540;2023-05-11T02:28:09;100698.61;;;12.23;58.10
68077;BME280;54866;53.458;14.540;2023-05-11T02:30:43;100701.16;;;12.20;58.19
68077;BME280;54866;53.458;14.540;2023-05-11T02:33:18;100700.84;;;12.18;58.30
68077;BME280;54866;53.458;14.540;2023-05-11T02:35:50;100701.80;;;12.14;58.23
68077;BME280;54866;53.458;14.540;2023-05-11T02:38:27;100699.14;;;12.13;58.45
68077;BME280;54866;53.458;14.540;2023-05-11T02:41:03;100706.15;;;12.11;58.55
68077;BME280;54866;53.458;14.540;2023-05-11T02:43:34;100706.55;;;12.11;58.59
68077;BME280;54866;53.458;14.540;2023-05-11T02:46:07;100706.48;;;12.07;58.51
68077;BME280;54866;53.458;14.540;2023-05-11T02:48:41;100713.29;;;12.08;58.74
68077;BME280;54866;53.458;14.540;2023-05-11T02:51:13;100712.52;;;12.07;58.68
68077;BME280;54866;53.458;14.540;2023-05-11T02:53:45;100716.14;;;12.05;58.84
68077;BME280;54866;53.458;14.540;2023-05-11T02:56:17;100717.59;;;12.03;58.90
68077;BME280;54866;53.458;14.540;2023-05-11T02:58:47;100718.65;;;12.01;59.07
68077;BME280;54866;53.458;14.540;2023-05-11T03:01:17;100714.71;;;11.99;59.09
68077;BME280;54866;53.458;14.540;2023-05-11T03:03:46;100708.59;;;11.99;59.17
68077;BME280;54866;53.458;14.540;2023-05-11T03:06:16;100718.17;;;11.99;59.13
68077;BME280;54866;53.458;14.540;2023-05-11T03:08:46;100721.09;;;11.97;59.26
68077;BME280;54866;53.458;14.540;2023-05-11T03:11:17;100728.36;;;11.97;59.35
68077;BME280;54866;53.458;14.540;2023-05-11T03:13:48;100726.00;;;11.98;59.36
68077;BME280;54866;53.458;14.540;2023-05-11T03:16:18;100730.36;;;11.96;59.50
68077;BME280;54866;53.458;14.540;2023-05-11T03:18:49;100721.80;;;11.95;59.80
68077;BME280;54866;53.458;14.540;2023-05-11T03:21:20;100727.53;;;11.94;59.47
68077;BME280;54866;53.458;14.540;2023-05-11T03:23:52;100728.02;;;11.94;59.69
68077;BME280;54866;53.458;14.540;2023-05-11T03:26:24;100732.70;;;11.93;59.77
68077;BME280;54866;53.458;14.540;2023-05-11T03:28:57;100732.66;;;11.94;59.14
68077;BME280;54866;53.458;14.540;2023-05-11T03:31:28;100732.39;;;11.97;59.35
68077;BME280;54866;53.458;14.540;2023-05-11T03:33:58;100729.50;;;11.96;59.28
68077;BME280;54866;53.458;14.540;2023-05-11T03:36:29;100727.16;;;11.96;59.60
68077;BME280;54866;53.458;14.540;2023-05-11T03:38:59;100730.87;;;11.96;59.54
68077;BME280;54866;53.458;14.540;2023-05-11T03:41:31;100722.20;;;11.97;59.62
68077;BME280;54866;53.458;14.540;2023-05-11T03:44:04;100725.73;;;11.95;59.51
68077;BME280;54866;53.458;14.540;2023-05-11T03:46:36;100730.36;;;11.96;59.64
68077;BME280;54866;53.458;14.540;2023-05-11T03:49:07;100723.97;;;11.95;59.95
68077;BME280;54866;53.458;14.540;2023-05-11T03:51:37;100722.88;;;11.95;59.61
68077;BME280;54866;53.458;14.540;2023-05-11T03:54:07;100725.05;;;11.94;59.82
68077;BME280;54866;53.458;14.540;2023-05-11T03:56:38;100727.02;;;11.94;59.71
68077;BME280;54866;53.458;14.540;2023-05-11T03:59:08;100727.14;;;11.93;59.82
68077;BME280;54866;53.458;14.540;2023-05-11T04:01:43;100725.16;;;11.91;59.73
68077;BME280;54866;53.458;14.540;2023-05-11T04:04:13;100729.83;;;11.92;59.89
68077;BME280;54866;53.458;14.540;2023-05-11T04:06:43;100728.92;;;11.92;59.70
68077;BME280;54866;53.458;14.540;2023-05-11T04:09:12;100730.08;;;11.95;59.69
68077;BME280;54866;53.458;14.540;2023-05-11T04:11:42;100730.73;;;11.96;59.69
68077;BME280;54866;53.458;14.540;2023-05-11T04:14:11;100733.70;;;12.01;59.44
68077;BME280;54866;53.458;14.540;2023-05-11T04:16:41;100734.11;;;12.02;59.25
68077;BME280;54866;53.458;14.540;2023-05-11T04:19:10;100740.05;;;12.07;59.19
68077;BME280;54866;53.458;14.540;2023-05-11T04:21:40;100733.88;;;12.11;59.10
68077;BME280;54866;53.458;14.540;2023-05-11T04:24:10;100738.45;;;12.13;58.93
68077;BME280;54866;53.458;14.540;2023-05-11T04:26:39;100741.39;;;12.16;58.90
68077;BME280;54866;53.458;14.540;2023-05-11T04:29:09;100739.86;;;12.18;58.83
68077;BME280;54866;53.458;14.540;2023-05-11T04:31:38;100741.96;;;12.20;58.56
68077;BME280;54866;53.458;14.540;2023-05-11T04:34:08;100740.17;;;12.18;58.34
68077;BME280;54866;53.458;14.540;2023-05-11T04:36:38;100743.77;;;12.19;58.13
68077;BME280;54866;53.458;14.540;2023-05-11T04:39:07;100741.88;;;12.13;58.06
68077;BME280;54866;53.458;14.540;2023-05-11T04:41:37;100745.61;;;12.12;58.20
68077;BME280;54866;53.458;14.540;2023-05-11T04:44:06;100747.11;;;12.09;58.38
68077;BME280;54866;53.458;14.540;2023-05-11T04:46:36;100753.70;;;12.09;58.12
68077;BME280;54866;53.458;14.540;2023-05-11T04:49:06;100754.25;;;12.12;58.03
68077;BME280;54866;53.458;14.540;2023-05-11T04:51:36;100761.17;;;12.16;57.89
68077;BME280;54866;53.458;14.540;2023-05-11T04:54:06;100759.14;;;12.26;57.69
68077;BME280;54866;53.458;14.540;2023-05-11T04:56:37;100762.79;;;12.35;57.33
68077;BME280;54866;53.458;14.540;2023-05-11T04:59:08;100764.14;;;12.42;57.01
68077;BME280;54866;53.458;14.540;2023-05-11T05:01:37;100764.10;;;12.59;56.74
68077;BME280;54866;53.458;14.540;2023-05-11T05:04:07;100762.81;;;12.63;56.22
68077;BME280;54866;53.458;14.540;2023-05-11T05:06:37;100762.30;;;12.72;55.86
68077;BME280;54866;53.458;14.540;2023-05-11T05:09:06;100770.64;;;12.75;55.61
68077;BME280;54866;53.458;14.540;2023-05-11T05:11:37;100765.00;;;12.75;55.09
68077;BME280;54866;53.458;14.540;2023-05-11T05:14:07;100769.74;;;12.75;55.32
68077;BME280;54866;53.458;14.540;2023-05-11T05:16:37;100774.73;;;12.75;55.41
68077;BME280;54866;53.458;14.540;2023-05-11T05:19:06;100776.55;;;12.80;55.17
68077;BME280;54866;53.458;14.540;2023-05-11T05:21:37;100777.25;;;12.89;55.34
68077;BME280;54866;53.458;14.540;2023-05-11T05:24:07;100770.02;;;13.01;54.90
68077;BME280;54866;53.458;14.540;2023-05-11T05:26:39;100779.99;;;13.12;54.46
68077;BME280;54866;53.458;14.540;2023-05-11T05:29:08;100778.35;;;13.27;54.34
68077;BME280;54866;53.458;14.540;2023-05-11T05:31:38;100781.20;;;13.47;54.16
68077;BME280;54866;53.458;14.540;2023-05-11T05:34:08;100774.39;;;13.79;53.37
68077;BME280;54866;53.458;14.540;2023-05-11T05:36:37;100772.57;;;14.32;51.59
68077;BME280;54866;53.458;14.540;2023-05-11T05:39:07;100772.94;;;14.32;51.61
68077;BME280;54866;53.458;14.540;2023-05-11T05:41:38;100776.50;;;14.45;50.27
68077;BME280;54866;53.458;14.540;2023-05-11T05:44:09;100780.02;;;14.47;50.00
68077;BME280;54866;53.458;14.540;2023-05-11T05:46:38;100774.86;;;14.38;50.09
68077;BME280;54866;53.458;14.540;2023-05-11T05:49:08;100785.48;;;14.28;50.44
68077;BME280;54866;53.458;14.540;2023-05-11T05:51:38;100790.64;;;14.16;50.76
68077;BME280;54866;53.458;14.540;2023-05-11T05:54:07;100792.11;;;14.20;50.55
68077;BME280;54866;53.458;14.540;2023-05-11T05:56:38;100788.00;;;14.36;49.88
68077;BME280;54866;53.458;14.540;2023-05-11T05:59:08;100795.53;;;14.42;49.88
68077;BME280;54866;53.458;14.540;2023-05-11T06:01:37;100799.65;;;14.50;49.91
68077;BME280;54866;53.458;14.540;2023-05-11T06:04:12;100801.61;;;14.63;49.88
68077;BME280;54866;53.458;14.540;2023-05-11T06:06:42;100804.14;;;14.91;49.34
68077;BME280;54866;53.458;14.540;2023-05-11T06:09:11;100800.02;;;15.66;47.60
68077;BME280;54866;53.458;14.540;2023-05-11T06:11:41;100801.17;;;17.47;44.43
68077;BME280;54866;53.458;14.540;2023-05-11T06:14:10;100798.81;;;18.17;41.95
68077;BME280;54866;53.458;14.540;2023-05-11T06:16:40;100793.17;;;20.24;39.47
68077;BME280;54866;53.458;14.540;2023-05-11T06:19:10;100790.35;;;21.89;35.10
68077;BME280;54866;53.458;14.540;2023-05-11T06:21:40;100790.75;;;22.97;33.17
68077;BME280;54866;53.458;14.540;2023-05-11T06:24:12;100793.81;;;22.94;31.85
68077;BME280;54866;53.458;14.540;2023-05-11T06:26:42;100795.73;;;22.92;32.25
68077;BME280;54866;53.458;14.540;2023-05-11T06:29:11;100793.70;;;22.84;32.02
68077;BME280;54866;53.458;14.540;2023-05-11T06:31:41;100789.83;;;23.39;31.17
68077;BME280;54866;53.458;14.540;2023-05-11T06:34:10;100795.70;;;24.23;30.81
68077;BME280;54866;53.458;14.540;2023-05-11T06:36:40;100790.46;;;25.18;29.11
68077;BME280;54866;53.458;14.540;2023-05-11T06:39:09;100793.01;;;25.70;28.32
68077;BME280;54866;53.458;14.540;2023-05-11T06:41:39;100794.52;;;26.54;28.17
68077;BME280;54866;53.458;14.540;2023-05-11T06:44:09;100797.29;;;24.93;28.21
68077;BME280;54866;53.458;14.540;2023-05-11T06:46:40;100803.10;;;23.66;29.94
68077;BME280;54866;53.458;14.540;2023-05-11T06:49:09;100802.78;;;22.37;32.00
68077;BME280;54866;53.458;14.540;2023-05-11T06:51:39;100812.00;;;21.03;34.13
68077;BME280;54866;53.458;14.540;2023-05-11T06:54:08;100799.08;;;20.19;35.40
68077;BME280;54866;53.458;14.540;2023-05-11T06:56:38;100809.46;;;19.27;37.24
68077;BME280;54866;53.458;14.540;2023-05-11T06:59:08;100811.00;;;18.53;39.04
68077;BME280;54866;53.458;14.540;2023-05-11T07:01:38;100805.15;;;18.07;40.45
68077;BME280;54866;53.458;14.540;2023-05-11T07:04:07;100805.72;;;17.85;40.98
68077;BME280;54866;53.458;14.540;2023-05-11T07:06:37;100809.48;;;17.65;41.52
68077;BME280;54866;53.458;14.540;2023-05-11T07:09:06;100804.21;;;17.40;41.99
68077;BME280;54866;53.458;14.540;2023-05-11T07:11:36;100810.05;;;17.15;42.97
68077;BME280;54866;53.458;14.540;2023-05-11T07:14:05;100813.35;;;17.04;43.31
68077;BME280;54866;53.458;14.540;2023-05-11T07:16:36;100814.65;;;16.90;43.65
68077;BME280;54866;53.458;14.540;2023-05-11T07:19:06;100813.52;;;16.85;43.86
68077;BME280;54866;53.458;14.540;2023-05-11T07:21:37;100816.95;;;16.97;43.95
68077;BME280;54866;53.458;14.540;2023-05-11T07:24:07;100819.67;;;17.17;43.57
68077;BME280;54866;53.458;14.540;2023-05-11T07:26:36;100817.39;;;17.45;43.35
68077;BME280;54866;53.458;14.540;2023-05-11T07:29:06;100809.86;;;17.61;42.59
68077;BME280;54866;53.458;14.540;2023-05-11T07:31:35;100814.44;;;17.53;42.67
68077;BME280;54866;53.458;14.540;2023-05-11T07:34:05;100816.04;;;17.75;43.03
68077;BME280;54866;53.458;14.540;2023-05-11T07:36:35;100820.60;;;17.76;42.89
68077;BME280;54866;53.458;14.540;2023-05-11T07:39:04;100824.33;;;17.86;43.17
68077;BME280;54866;53.458;14.540;2023-05-11T07:41:34;100820.14;;;17.95;43.04
68077;BME280;54866;53.458;14.540;2023-05-11T07:44:04;100821.04;;;18.00;42.70
68077;BME280;54866;53.458;14.540;2023-05-11T07:46:34;100817.30;;;18.01;42.96
68077;BME280;54866;53.458;14.540;2023-05-11T07:49:03;100820.16;;;17.93;42.97
68077;BME280;54866;53.458;14.540;2023-05-11T07:51:33;100822.25;;;18.02;42.73
68077;BME280;54866;53.458;14.540;2023-05-11T07:54:03;100821.54;;;18.10;42.77
68077;BME280;54866;53.458;14.540;2023-05-11T07:56:32;100829.10;;;18.24;42.95
68077;BME280;54866;53.458;14.540;2023-05-11T07:59:02;100825.35;;;18.16;42.58
68077;BME280;54866;53.458;14.540;2023-05-11T08:01:32;100823.05;;;18.24;42.98
68077;BME280;54866;53.458;14.540;2023-05-11T08:04:02;100827.16;;;18.35;42.40
68077;BME280;54866;53.458;14.540;2023-05-11T08:06:31;100820.61;;;18.48;42.37
68077;BME280;54866;53.458;14.540;2023-05-11T08:09:01;100825.95;;;18.51;42.39
68077;BME280;54866;53.458;14.540;2023-05-11T08:11:31;100828.42;;;18.67;42.29
68077;BME280;54866;53.458;14.540;2023-05-11T08:14:00;100826.98;;;18.89;41.68
68077;BME280;54866;53.458;14.540;2023-05-11T08:16:30;100826.46;;;19.07;41.12
68077;BME280;54866;53.458;14.540;2023-05-11T08:19:00;100829.40;;;19.17;40.94
68077;BME280;54866;53.458;14.540;2023-05-11T08:21:30;100829.85;;;19.32;40.80
68077;BME280;54866;53.458;14.540;2023-05-11T08:24:00;100822.89;;;19.47;40.56
68077;BME280;54866;53.458;14.540;2023-05-11T08:26:30;100821.84;;;19.52;40.21
68077;BME280;54866;53.458;14.540;2023-05-11T08:29:00;100827.24;;;19.45;40.21
68077;BME280;54866;53.458;14.540;2023-05-11T08:31:31;100825.39;;;19.52;40.79
68077;BME280;54866;53.458;14.540;2023-05-11T08:34:01;100824.42;;;19.63;40.18
68077;BME280;54866;53.458;14.540;2023-05-11T08:36:31;100825.31;;;19.67;40.24
68077;BME280;54866;53.458;14.540;2023-05-11T08:39:01;100826.77;;;19.76;40.07
68077;BME280;54866;53.458;14.540;2023-05-11T08:41:30;100826.08;;;19.78;39.86
68077;BME280;54866;53.458;14.540;2023-05-11T08:44:01;100826.93;;;19.62;39.92
68077;BME280;54866;53.458;14.540;2023-05-11T08:46:31;100828.24;;;19.61;40.40
68077;BME280;54866;53.458;14.540;2023-05-11T08:49:03;100835.77;;;19.67;39.95
68077;BME280;54866;53.458;14.540;2023-05-11T08:51:33;100835.98;;;19.75;39.59
68077;BME280;54866;53.458;14.540;2023-05-11T08:54:03;100831.82;;;19.88;39.56
68077;BME280;54866;53.458;14.540;2023-05-11T08:56:35;100835.38;;;20.08;39.32
68077;BME280;54866;53.458;14.540;2023-05-11T08:59:06;100835.15;;;20.65;39.29
68077;BME280;54866;53.458;14.540;2023-05-11T09:01:37;100833.55;;;21.16;37.61
68077;BME280;54866;53.458;14.540;2023-05-11T09:04:09;100840.39;;;21.23;36.92
68077;BME280;54866;53.458;14.540;2023-05-11T09:06:39;100835.81;;;21.79;36.44
68077;BME280;54866;53.458;14.540;2023-05-11T09:09:09;100837.19;;;22.74;35.13
68077;BME280;54866;53.458;14.540;2023-05-11T09:11:40;100829.55;;;23.33;34.88
68077;BME280;54866;53.458;14.540;2023-05-11T09:14:10;100838.20;;;23.39;34.33
68077;BME280;54866;53.458;14.540;2023-05-11T09:16:40;100839.14;;;23.36;33.73
68077;BME280;54866;53.458;14.540;2023-05-11T09:19:14;100843.14;;;23.51;33.62
68077;BME280;54866;53.458;14.540;2023-05-11T09:21:44;100838.56;;;23.87;33.28
68077;BME280;54866;53.458;14.540;2023-05-11T09:24:14;100838.45;;;23.70;32.45
68077;BME280;54866;53.458;14.540;2023-05-11T09:26:43;100841.08;;;23.25;32.46
68077;BME280;54866;53.458;14.540;2023-05-11T09:29:13;100846.04;;;23.03;33.21
68077;BME280;54866;53.458;14.540;2023-05-11T09:31:45;100844.48;;;22.96;33.76
68077;BME280;54866;53.458;14.540;2023-05-11T09:34:19;100845.59;;;22.97;33.77
68077;BME280;54866;53.458;14.540;2023-05-11T09:36:51;100842.89;;;23.15;34.03
68077;BME280;54866;53.458;14.540;2023-05-11T09:39:30;100845.27;;;22.78;34.07
68077;BME280;54866;53.458;14.540;2023-05-11T09:42:15;100844.83;;;22.45;34.25
68077;BME280;54866;53.458;14.540;2023-05-11T09:44:45;100842.25;;;22.13;34.96
68077;BME280;54866;53.458;14.540;2023-05-11T09:47:16;100845.96;;;21.55;35.93
68077;BME280;54866;53.458;14.540;2023-05-11T09:49:46;100850.23;;;21.44;36.53
68077;BME280;54866;53.458;14.540;2023-05-11T09:52:17;100851.54;;;21.48;35.91
68077;BME280;54866;53.458;14.540;2023-05-11T09:54:49;100853.24;;;21.39;35.82
68077;BME280;54866;53.458;14.540;2023-05-11T09:57:27;100858.23;;;21.47;35.80
68077;BME280;54866;53.458;14.540;2023-05-11T09:59:58;100851.01;;;21.54;35.89
68077;BME280;54866;53.458;14.540;2023-05-11T10:02:30;100852.46;;;21.52;35.80
68077;BME280;54866;53.458;14.540;2023-05-11T10:05:08;100854.84;;;21.63;35.89
68077;BME280;54866;53.458;14.540;2023-05-11T10:07:39;100845.11;;;21.83;35.50
68077;BME280;54866;53.458;14.540;2023-05-11T10:10:10;100848.63;;;22.08;35.49
68077;BME280;54866;53.458;14.540;2023-05-11T10:12:40;100845.21;;;22.21;35.22
68077;BME280;54866;53.458;14.540;2023-05-11T10:15:11;100832.60;;;22.55;35.13
68077;BME280;54866;53.458;14.540;2023-05-11T10:17:42;100829.63;;;23.17;34.61
68077;BME280;54866;53.458;14.540;2023-05-11T10:20:13;100824.15;;;23.49;34.00
68077;BME280;54866;53.458;14.540;2023-05-11T10:22:44;100827.11;;;23.30;34.13
68077;BME280;54866;53.458;14.540;2023-05-11T10:25:15;100831.13;;;22.92;34.26
68077;BME280;54866;53.458;14.540;2023-05-11T10:27:45;100824.63;;;22.54;35.36
68077;BME280;54866;53.458;14.540;2023-05-11T10:30:16;100818.89;;;22.87;35.29
68077;BME280;54866;53.458;14.540;2023-05-11T10:32:46;100817.58;;;23.14;35.13
68077;BME280;54866;53.458;14.540;2023-05-11T10:35:16;100818.32;;;22.99;34.52
68077;BME280;54866;53.458;14.540;2023-05-11T10:37:46;100817.79;;;22.78;35.33
68077;BME280;54866;53.458;14.540;2023-05-11T10:40:16;100806.18;;;22.95;34.67
68077;BME280;54866;53.458;14.540;2023-05-11T10:43:13;100811.20;;;23.16;34.36
68077;BME280;54866;53.458;14.540;2023-05-11T10:45:53;100809.41;;;23.36;32.75
68077;BME280;54866;53.458;14.540;2023-05-11T10:48:56;100806.17;;;23.20;32.82
68077;BME280;54866;53.458;14.540;2023-05-11T10:51:49;100803.20;;;23.57;32.76
68077;BME280;54866;53.458;14.540;2023-05-11T10:54:44;100800.77;;;23.64;32.08
68077;BME280;54866;53.458;14.540;2023-05-11T10:57:33;100799.32;;;23.44;32.49
68077;BME280;54866;53.458;14.540;2023-05-11T11:00:18;100805.55;;;23.23;32.10
68077;BME280;54866;53.458;14.540;2023-05-11T11:02:58;100813.95;;;23.04;31.65
68077;BME280;54866;53.458;14.540;2023-05-11T11:05:37;100820.91;;;23.14;30.73
68077;BME280;54866;53.458;14.540;2023-05-11T11:08:07;100818.22;;;23.09;31.27
68077;BME280;54866;53.458;14.540;2023-05-11T11:10:38;100812.13;;;23.17;32.06
68077;BME280;54866;53.458;14.540;2023-05-11T11:13:12;100814.30;;;23.26;31.49
68077;BME280;54866;53.458;14.540;2023-05-11T11:16:09;100805.64;;;23.40;30.10
68077;BME280;54866;53.458;14.540;2023-05-11T11:18:39;100816.39;;;23.57;28.65
68077;BME280;54866;53.458;14.540;2023-05-11T11:21:09;100816.29;;;23.60;29.46
68077;BME280;54866;53.458;14.540;2023-05-11T11:23:47;100821.75;;;23.78;28.58
68077;BME280;54866;53.458;14.540;2023-05-11T11:29:12;100814.16;;;23.98;27.23
68077;BME280;54866;53.458;14.540;2023-05-11T11:31:42;100817.51;;;24.03;27.16
68077;BME280;54866;53.458;14.540;2023-05-11T11:34:34;100810.38;;;24.23;27.18
68077;BME280;54866;53.458;14.540;2023-05-11T11:37:06;100804.03;;;24.04;26.96
68077;BME280;54866;53.458;14.540;2023-05-11T11:39:49;100808.98;;;23.94;27.23
68077;BME280;54866;53.458;14.540;2023-05-11T11:42:37;100813.81;;;23.86;28.04
68077;BME280;54866;53.458;14.540;2023-05-11T11:45:32;100795.66;;;23.61;27.47
68077;BME280;54866;53.458;14.540;2023-05-11T11:48:13;100800.41;;;23.63;27.68
68077;BME280;54866;53.458;14.540;2023-05-11T11:50:47;100808.52;;;23.67;25.37
68077;BME280;54866;53.458;14.540;2023-05-11T11:56:40;100830.59;;;23.79;25.06
68077;BME280;54866;53.458;14.540;2023-05-11T11:59:11;100818.17;;;23.25;26.50
68077;BME280;54866;53.458;14.540;2023-05-11T12:01:43;100810.79;;;22.89;27.22
68077;BME280;54866;53.458;14.540;2023-05-11T12:07:13;100816.95;;;22.92;29.18
68077;BME280;54866;53.458;14.540;2023-05-11T12:09:45;100816.66;;;22.86;28.86
68077;BME280;54866;53.458;14.540;2023-05-11T12:12:17;100811.40;;;22.68;28.94
68077;BME280;54866;53.458;14.540;2023-05-11T12:14:48;100821.61;;;22.50;29.53
68077;BME280;54866;53.458;14.540;2023-05-11T12:17:25;100817.67;;;22.30;29.76
68077;BME280;54866;53.458;14.540;2023-05-11T12:20:12;100817.96;;;22.16;30.06
68077;BME280;54866;53.458;14.540;2023-05-11T12:22:42;100829.90;;;22.40;30.30
68077;BME280;54866;53.458;14.540;2023-05-11T12:25:14;100822.39;;;22.53;30.71
68077;BME280;54866;53.458;14.540;2023-05-11T12:27:53;100821.77;;;22.48;30.62
68077;BME280;54866;53.458;14.540;2023-05-11T12:30:27;100831.84;;;22.52;30.29
68077;BME280;54866;53.458;14.540;2023-05-11T12:32:58;100832.09;;;22.30;30.15
68077;BME280;54866;53.458;14.540;2023-05-11T12:35:29;100829.42;;;22.23;30.40
68077;BME280;54866;53.458;14.540;2023-05-11T12:38:00;100826.26;;;22.21;30.46
68077;BME280;54866;53.458;14.540;2023-05-11T12:40:31;100821.63;;;22.23;30.75
68077;BME280;54866;53.458;14.540;2023-05-11T12:43:00;100825.81;;;22.07;31.25
68077;BME280;54866;53.458;14.540;2023-05-11T12:45:30;100822.27;;;21.87;31.61
68077;BME280;54866;53.458;14.540;2023-05-11T12:48:01;100815.48;;;21.96;31.91
68077;BME280;54866;53.458;14.540;2023-05-11T12:50:31;100814.48;;;22.13;32.00
68077;BME280;54866;53.458;14.540;2023-05-11T12:53:14;100809.22;;;22.16;32.09
68077;BME280;54866;53.458;14.540;2023-05-11T12:55:53;100825.36;;;22.37;32.25
68077;BME280;54866;53.458;14.540;2023-05-11T12:58:25;100835.90;;;22.39;31.57
68077;BME280;54866;53.458;14.540;2023-05-11T13:00:56;100825.58;;;22.34;32.07
68077;BME280;54866;53.458;14.540;2023-05-11T13:03:28;100827.92;;;22.37;32.46
68077;BME280;54866;53.458;14.540;2023-05-11T13:06:06;100825.10;;;22.45;32.28
68077;BME280;54866;53.458;14.540;2023-05-11T13:08:37;100819.19;;;22.52;32.79
68077;BME280;54866;53.458;14.540;2023-05-11T13:11:21;100824.78;;;22.56;32.66
68077;BME280;54866;53.458;14.540;2023-05-11T13:13:53;100824.67;;;22.47;32.17